Disclaimer

Please do not use the information listed here in-flight or in-navigation, as they are not provided to us by the airports but are provided by volunteers, so they might be outdated.

Search


Regions


Airport information page

Radio informations:
Tower (TWR) - 119.3 MHz

Airport informations:
Latitude: 30° 56' 20.59" N
Longitude: 006° 54' 33.95" W
Elevation: 3782 feet - 1153 meters
Operating hours: 24 hour operations
Operating agency: Civil government, landing fees and diplomatic clearance may be required
Timezone: UTC 0
Fuel: Jet A1, without icing nhibitor.

Runway information:
12/30 - 9842 x 148 feet< - >3000 x 45 meters

Recent METARs:
GMMZ 160900Z VRB02KT CAVOK 08/M01 Q1031 NOSIG
GMMZ 161000Z VRB02KT CAVOK 12/M00 Q1031 NOSIG
GMMZ 161000Z VRB02KT CAVOK 12/M00 Q1031 NOSIG

Airport on the map: